F/V Argentario — FGPE — position and weather

sailwx.info

Track history (hours):
 
Tides and Currents Weather Stations Pressure Air Temp Water Temp Dewpoint Dewpoint Depression Visibility Wind Speed Wind Dir Waves Ship Positions

F/V Argentario

Last reported at 2014-Sep-16 08:22 UTC. Time now 2014-Sep-17 11:36 UTC.
Position N 46°30' W 001°47'.

Length 22 m; draft 3.4 m.

Type: Fishing. MMSI: 228975000.

Date/timePositionNaut miles runAvg speedWind from/ knotsBaromVisibWave heightAir tempDewpointWater temp
2014-Sep-16 08:22N 46°30' W 001°47'0 0.1
2014-Sep-16 07:33N 46°30' W 001°48'0 0.2
2014-Sep-16 06:33N 46°30' W 001°47'0 0.0
2014-Sep-16 05:33N 46°30' W 001°47'3 3.2
2014-Sep-16 04:33N 46°28' W 001°51'8 8.2
2014-Sep-16 03:33N 46°26' W 002°02'8 8.3
2014-Sep-16 02:33N 46°24' W 002°14'11 7.8
2014-Sep-16 01:10N 46°21' W 002°29'5 7.8
2014-Sep-16 00:33N 46°20' W 002°36'42 7.9
2014-Sep-15 19:15N 46°08' W 003°34'10 8.4
2014-Sep-15 18:04N 46°06' W 003°48'  
2014-Sep-13 01:33N 46°17' W 003°35'57 1.4
2014-Sep-11 07:31N 46°44' W 002°21'7 7.6
2014-Sep-11 06:33N 46°40' W 002°12'9 8.7
2014-Sep-11 05:33N 46°35' W 002°02'9 8.6
2014-Sep-11 04:33N 46°29' W 001°52'3 3.2
2014-Sep-11 03:33N 46°30' W 001°47'0 0.2
2014-Sep-11 02:33N 46°30' W 001°47'3 2.8
2014-Sep-11 01:33N 46°28' W 001°50'8 8.5
2014-Sep-11 00:33N 46°26' W 002°02'8 8.1
2014-Sep-10 23:33N 46°24' W 002°13'9 7.7
2014-Sep-10 22:21N 46°22' W 002°26'7 7.1
2014-Sep-10 21:22N 46°20' W 002°36'6 7.2
2014-Sep-10 20:31N 46°19' W 002°45'  
2014-Sep-07 08:25N 46°01' W 003°58'2 0.5
2014-Sep-07 05:31N 45°59' W 003°58'3 0.5
2014-Sep-07 00:28N 46°00' W 004°01'  
Track history (hours):
 
Tides and Currents Weather Stations Pressure Air Temp Water Temp Dewpoint Dewpoint Depression Visibility Wind Speed Wind Dir Waves Ship Positions

F/V Argentario

Last reported at 2014-Sep-16 08:22 UTC. Time now 2014-Sep-17 11:36 UTC.
Position N 46°30' W 001°47'.

Length 22 m; draft 3.4 m.

Type: Fishing. MMSI: 228975000.

Date/timePositionNaut miles runAvg speedWind from/ knotsBaromVisibWave heightAir tempDewpointWater temp
2014-Sep-16 08:22N 46°30' W 001°47'0 0.1
2014-Sep-16 07:33N 46°30' W 001°48'0 0.2
2014-Sep-16 06:33N 46°30' W 001°47'0 0.0
2014-Sep-16 05:33N 46°30' W 001°47'3 3.2
2014-Sep-16 04:33N 46°28' W 001°51'8 8.2
2014-Sep-16 03:33N 46°26' W 002°02'8 8.3
2014-Sep-16 02:33N 46°24' W 002°14'11 7.8
2014-Sep-16 01:10N 46°21' W 002°29'5 7.8
2014-Sep-16 00:33N 46°20' W 002°36'42 7.9
2014-Sep-15 19:15N 46°08' W 003°34'10 8.4
2014-Sep-15 18:04N 46°06' W 003°48'  
2014-Sep-13 01:33N 46°17' W 003°35'57 1.4
2014-Sep-11 07:31N 46°44' W 002°21'7 7.6
2014-Sep-11 06:33N 46°40' W 002°12'9 8.7
2014-Sep-11 05:33N 46°35' W 002°02'9 8.6
2014-Sep-11 04:33N 46°29' W 001°52'3 3.2
2014-Sep-11 03:33N 46°30' W 001°47'0 0.2
2014-Sep-11 02:33N 46°30' W 001°47'3 2.8
2014-Sep-11 01:33N 46°28' W 001°50'8 8.5
2014-Sep-11 00:33N 46°26' W 002°02'8 8.1
2014-Sep-10 23:33N 46°24' W 002°13'9 7.7
2014-Sep-10 22:21N 46°22' W 002°26'7 7.1
2014-Sep-10 21:22N 46°20' W 002°36'6 7.2
2014-Sep-10 20:31N 46°19' W 002°45'  
2014-Sep-07 08:25N 46°01' W 003°58'2 0.5
2014-Sep-07 05:31N 45°59' W 003°58'3 0.5
2014-Sep-07 00:28N 46°00' W 004°01'  

Dump ship's entire track history